sensor_id;sensor_type;location;lat;lon;timestamp;P1;durP1;ratioP1;P2;durP2;ratioP2
30505;SDS011;17292;51.600;4.994;2023-09-19T00:01:08;8.38;;;5.68;;
30505;SDS011;17292;51.600;4.994;2023-09-19T00:03:34;7.35;;;5.95;;
30505;SDS011;17292;51.600;4.994;2023-09-19T00:06:02;8.35;;;5.68;;
30505;SDS011;17292;51.600;4.994;2023-09-19T00:08:33;10.52;;;5.82;;
30505;SDS011;17292;51.600;4.994;2023-09-19T00:10:59;7.60;;;5.85;;
30505;SDS011;17292;51.600;4.994;2023-09-19T00:13:33;9.98;;;6.05;;
30505;SDS011;17292;51.600;4.994;2023-09-19T00:16:01;5.90;;;5.40;;
30505;SDS011;17292;51.600;4.994;2023-09-19T00:18:27;8.90;;;6.05;;
30505;SDS011;17292;51.600;4.994;2023-09-19T00:20:57;7.03;;;5.60;;
30505;SDS011;17292;51.600;4.994;2023-09-19T00:23:23;8.48;;;5.97;;
30505;SDS011;17292;51.600;4.994;2023-09-19T00:25:50;10.30;;;6.05;;
30505;SDS011;17292;51.600;4.994;2023-09-19T00:28:17;7.95;;;5.78;;
30505;SDS011;17292;51.600;4.994;2023-09-19T00:30:45;8.18;;;5.43;;
30505;SDS011;17292;51.600;4.994;2023-09-19T00:33:15;8.07;;;5.72;;
30505;SDS011;17292;51.600;4.994;2023-09-19T00:35:48;8.55;;;6.05;;
30505;SDS011;17292;51.600;4.994;2023-09-19T00:38:14;8.73;;;5.75;;
30505;SDS011;17292;51.600;4.994;2023-09-19T00:40:46;7.57;;;5.85;;
30505;SDS011;17292;51.600;4.994;2023-09-19T00:43:13;6.45;;;5.82;;
30505;SDS011;17292;51.600;4.994;2023-09-19T00:45:42;7.20;;;5.63;;
30505;SDS011;17292;51.600;4.994;2023-09-19T00:48:08;10.68;;;5.95;;
30505;SDS011;17292;51.600;4.994;2023-09-19T00:50:35;6.45;;;5.53;;
30505;SDS011;17292;51.600;4.994;2023-09-19T00:53:01;8.82;;;5.47;;
30505;SDS011;17292;51.600;4.994;2023-09-19T00:55:35;6.22;;;5.20;;
30505;SDS011;17292;51.600;4.994;2023-09-19T00:58:09;9.18;;;6.05;;
30505;SDS011;17292;51.600;4.994;2023-09-19T01:00:36;6.65;;;5.53;;
30505;SDS011;17292;51.600;4.994;2023-09-19T01:03:02;7.78;;;5.53;;
30505;SDS011;17292;51.600;4.994;2023-09-19T01:05:29;6.75;;;5.20;;
30505;SDS011;17292;51.600;4.994;2023-09-19T01:07:55;7.43;;;5.35;;
30505;SDS011;17292;51.600;4.994;2023-09-19T01:10:22;6.47;;;5.43;;
30505;SDS011;17292;51.600;4.994;2023-09-19T01:30:39;6.88;;;5.38;;
30505;SDS011;17292;51.600;4.994;2023-09-19T01:35:37;9.60;;;5.43;;
30505;SDS011;17292;51.600;4.994;2023-09-19T01:38:04;6.60;;;5.20;;
30505;SDS011;17292;51.600;4.994;2023-09-19T01:40:34;8.20;;;5.88;;
30505;SDS011;17292;51.600;4.994;2023-09-19T01:43:09;7.95;;;5.47;;
30505;SDS011;17292;51.600;4.994;2023-09-19T01:50:41;9.40;;;5.55;;
30505;SDS011;17292;51.600;4.994;2023-09-19T01:53:14;8.10;;;5.57;;
30505;SDS011;17292;51.600;4.994;2023-09-19T01:55:43;6.90;;;5.20;;
30505;SDS011;17292;51.600;4.994;2023-09-19T01:58:19;8.25;;;5.30;;
30505;SDS011;17292;51.600;4.994;2023-09-19T02:00:47;7.93;;;5.80;;
30505;SDS011;17292;51.600;4.994;2023-09-19T02:03:15;8.05;;;5.22;;
30505;SDS011;17292;51.600;4.994;2023-09-19T02:05:42;9.00;;;5.45;;
30505;SDS011;17292;51.600;4.994;2023-09-19T02:08:15;6.20;;;5.38;;
30505;SDS011;17292;51.600;4.994;2023-09-19T02:10:42;7.68;;;5.30;;
30505;SDS011;17292;51.600;4.994;2023-09-19T02:13:15;8.07;;;6.20;;
30505;SDS011;17292;51.600;4.994;2023-09-19T02:15:42;7.13;;;5.47;;
30505;SDS011;17292;51.600;4.994;2023-09-19T02:18:09;7.88;;;5.28;;
30505;SDS011;17292;51.600;4.994;2023-09-19T02:20:37;7.80;;;5.55;;
30505;SDS011;17292;51.600;4.994;2023-09-19T02:23:03;8.40;;;5.07;;
30505;SDS011;17292;51.600;4.994;2023-09-19T02:25:29;6.07;;;5.47;;
30505;SDS011;17292;51.600;4.994;2023-09-19T02:27:57;6.90;;;4.97;;
30505;SDS011;17292;51.600;4.994;2023-09-19T02:30:28;9.20;;;5.70;;
30505;SDS011;17292;51.600;4.994;2023-09-19T02:32:54;8.40;;;5.20;;
30505;SDS011;17292;51.600;4.994;2023-09-19T02:35:20;6.85;;;5.47;;
30505;SDS011;17292;51.600;4.994;2023-09-19T02:37:47;8.15;;;5.65;;
30505;SDS011;17292;51.600;4.994;2023-09-19T02:40:13;8.05;;;5.20;;
30505;SDS011;17292;51.600;4.994;2023-09-19T02:42:52;6.93;;;5.40;;
30505;SDS011;17292;51.600;4.994;2023-09-19T02:45:18;7.20;;;5.57;;
30505;SDS011;17292;51.600;4.994;2023-09-19T02:47:45;7.60;;;5.35;;
30505;SDS011;17292;51.600;4.994;2023-09-19T02:50:11;7.10;;;5.00;;
30505;SDS011;17292;51.600;4.994;2023-09-19T02:52:38;9.20;;;5.70;;
30505;SDS011;17292;51.600;4.994;2023-09-19T02:55:08;7.82;;;5.35;;
30505;SDS011;17292;51.600;4.994;2023-09-19T02:57:35;9.07;;;5.45;;
30505;SDS011;17292;51.600;4.994;2023-09-19T03:00:02;7.22;;;5.30;;
30505;SDS011;17292;51.600;4.994;2023-09-19T03:02:28;7.35;;;5.05;;
30505;SDS011;17292;51.600;4.994;2023-09-19T03:04:58;7.25;;;5.50;;
30505;SDS011;17292;51.600;4.994;2023-09-19T03:07:25;6.00;;;5.07;;
30505;SDS011;17292;51.600;4.994;2023-09-19T03:09:51;6.28;;;5.05;;
30505;SDS011;17292;51.600;4.994;2023-09-19T03:12:18;6.68;;;4.90;;
30505;SDS011;17292;51.600;4.994;2023-09-19T03:14:44;6.70;;;5.20;;
30505;SDS011;17292;51.600;4.994;2023-09-19T03:17:10;7.55;;;5.43;;
30505;SDS011;17292;51.600;4.994;2023-09-19T03:19:39;8.05;;;5.45;;
30505;SDS011;17292;51.600;4.994;2023-09-19T03:22:05;8.52;;;5.68;;
30505;SDS011;17292;51.600;4.994;2023-09-19T03:24:33;5.57;;;5.07;;
30505;SDS011;17292;51.600;4.994;2023-09-19T03:27:01;6.05;;;5.25;;
30505;SDS011;17292;51.600;4.994;2023-09-19T03:29:28;6.10;;;5.00;;
30505;SDS011;17292;51.600;4.994;2023-09-19T03:31:54;6.60;;;5.35;;
30505;SDS011;17292;51.600;4.994;2023-09-19T03:34:20;5.72;;;5.13;;
30505;SDS011;17292;51.600;4.994;2023-09-19T03:36:46;6.47;;;4.97;;
30505;SDS011;17292;51.600;4.994;2023-09-19T03:39:12;5.72;;;5.00;;
30505;SDS011;17292;51.600;4.994;2023-09-19T03:41:40;7.13;;;5.07;;
30505;SDS011;17292;51.600;4.994;2023-09-19T03:44:07;5.88;;;4.78;;
30505;SDS011;17292;51.600;4.994;2023-09-19T03:46:33;6.45;;;5.00;;
30505;SDS011;17292;51.600;4.994;2023-09-19T03:49:00;7.53;;;4.70;;
30505;SDS011;17292;51.600;4.994;2023-09-19T03:51:26;9.05;;;4.90;;
30505;SDS011;17292;51.600;4.994;2023-09-19T03:53:52;7.30;;;4.88;;
30505;SDS011;17292;51.600;4.994;2023-09-19T03:56:19;5.32;;;4.43;;
30505;SDS011;17292;51.600;4.994;2023-09-19T03:58:45;6.88;;;5.18;;
30505;SDS011;17292;51.600;4.994;2023-09-19T04:01:11;5.32;;;4.82;;
30505;SDS011;17292;51.600;4.994;2023-09-19T04:03:38;6.43;;;4.82;;
30505;SDS011;17292;51.600;4.994;2023-09-19T04:06:15;6.35;;;4.85;;
30505;SDS011;17292;51.600;4.994;2023-09-19T04:08:42;8.90;;;5.20;;
30505;SDS011;17292;51.600;4.994;2023-09-19T04:11:09;7.68;;;5.28;;
30505;SDS011;17292;51.600;4.994;2023-09-19T04:13:36;6.93;;;5.32;;
30505;SDS011;17292;51.600;4.994;2023-09-19T04:16:02;7.70;;;4.95;;
30505;SDS011;17292;51.600;4.994;2023-09-19T04:18:29;9.90;;;5.20;;
30505;SDS011;17292;51.600;4.994;2023-09-19T04:20:58;5.65;;;4.45;;
30505;SDS011;17292;51.600;4.994;2023-09-19T04:23:28;6.10;;;5.18;;
30505;SDS011;17292;51.600;4.994;2023-09-19T04:25:54;7.97;;;4.75;;
30505;SDS011;17292;51.600;4.994;2023-09-19T04:28:20;6.07;;;4.85;;
30505;SDS011;17292;51.600;4.994;2023-09-19T04:30:47;5.47;;;4.65;;
30505;SDS011;17292;51.600;4.994;2023-09-19T04:33:13;5.93;;;5.10;;
30505;SDS011;17292;51.600;4.994;2023-09-19T04:35:39;6.63;;;4.95;;
30505;SDS011;17292;51.600;4.994;2023-09-19T04:38:07;5.30;;;4.53;;
30505;SDS011;17292;51.600;4.994;2023-09-19T04:40:34;6.07;;;4.80;;
30505;SDS011;17292;51.600;4.994;2023-09-19T04:43:00;7.72;;;4.93;;
30505;SDS011;17292;51.600;4.994;2023-09-19T04:45:27;5.18;;;4.60;;
30505;SDS011;17292;51.600;4.994;2023-09-19T04:47:54;5.20;;;4.55;;
30505;SDS011;17292;51.600;4.994;2023-09-19T04:50:21;6.28;;;4.88;;
30505;SDS011;17292;51.600;4.994;2023-09-19T04:52:51;6.18;;;4.60;;
30505;SDS011;17292;51.600;4.994;2023-09-19T04:55:19;8.48;;;5.25;;
30505;SDS011;17292;51.600;4.994;2023-09-19T04:57:49;7.82;;;5.10;;
30505;SDS011;17292;51.600;4.994;2023-09-19T05:00:19;8.75;;;5.28;;
30505;SDS011;17292;51.600;4.994;2023-09-19T05:02:51;5.60;;;4.88;;
30505;SDS011;17292;51.600;4.994;2023-09-19T05:05:17;6.32;;;4.60;;
30505;SDS011;17292;51.600;4.994;2023-09-19T05:07:44;8.07;;;5.15;;
30505;SDS011;17292;51.600;4.994;2023-09-19T05:10:11;9.23;;;5.10;;
30505;SDS011;17292;51.600;4.994;2023-09-19T05:12:37;6.05;;;4.85;;
30505;SDS011;17292;51.600;4.994;2023-09-19T05:15:04;9.50;;;5.25;;
30505;SDS011;17292;51.600;4.994;2023-09-19T05:17:32;6.07;;;4.28;;
30505;SDS011;17292;51.600;4.994;2023-09-19T05:19:59;7.15;;;4.60;;
30505;SDS011;17292;51.600;4.994;2023-09-19T05:22:36;7.85;;;4.65;;
30505;SDS011;17292;51.600;4.994;2023-09-19T05:25:05;8.05;;;5.10;;
30505;SDS011;17292;51.600;4.994;2023-09-19T05:27:32;8.15;;;4.72;;
30505;SDS011;17292;51.600;4.994;2023-09-19T05:29:58;7.57;;;4.80;;
30505;SDS011;17292;51.600;4.994;2023-09-19T05:32:25;8.98;;;4.53;;
30505;SDS011;17292;51.600;4.994;2023-09-19T05:34:51;9.10;;;4.60;;
30505;SDS011;17292;51.600;4.994;2023-09-19T05:37:18;7.20;;;4.32;;
30505;SDS011;17292;51.600;4.994;2023-09-19T05:39:45;6.63;;;4.80;;
30505;SDS011;17292;51.600;4.994;2023-09-19T05:42:11;8.98;;;5.40;;
30505;SDS011;17292;51.600;4.994;2023-09-19T05:44:37;7.93;;;4.93;;
30505;SDS011;17292;51.600;4.994;2023-09-19T05:47:03;8.32;;;5.30;;
30505;SDS011;17292;51.600;4.994;2023-09-19T05:49:29;11.18;;;4.55;;
30505;SDS011;17292;51.600;4.994;2023-09-19T05:51:55;7.78;;;4.85;;
30505;SDS011;17292;51.600;4.994;2023-09-19T05:54:24;9.05;;;5.00;;
30505;SDS011;17292;51.600;4.994;2023-09-19T05:56:50;5.57;;;4.35;;
30505;SDS011;17292;51.600;4.994;2023-09-19T05:59:18;10.50;;;4.97;;
30505;SDS011;17292;51.600;4.994;2023-09-19T06:01:44;10.93;;;4.70;;
30505;SDS011;17292;51.600;4.994;2023-09-19T06:04:12;6.70;;;3.75;;
30505;SDS011;17292;51.600;4.994;2023-09-19T06:06:38;9.35;;;4.25;;
30505;SDS011;17292;51.600;4.994;2023-09-19T06:09:05;12.18;;;3.97;;
30505;SDS011;17292;51.600;4.994;2023-09-19T06:11:33;12.70;;;4.20;;
30505;SDS011;17292;51.600;4.994;2023-09-19T06:14:03;6.68;;;4.40;;
30505;SDS011;17292;51.600;4.994;2023-09-19T06:16:29;11.30;;;4.65;;
30505;SDS011;17292;51.600;4.994;2023-09-19T06:18:57;12.30;;;4.82;;
30505;SDS011;17292;51.600;4.994;2023-09-19T06:21:25;10.90;;;5.07;;
30505;SDS011;17292;51.600;4.994;2023-09-19T06:23:52;8.95;;;4.85;;
30505;SDS011;17292;51.600;4.994;2023-09-19T06:26:18;14.88;;;5.20;;
30505;SDS011;17292;51.600;4.994;2023-09-19T06:28:44;13.35;;;5.07;;
30505;SDS011;17292;51.600;4.994;2023-09-19T06:31:10;14.88;;;5.32;;
30505;SDS011;17292;51.600;4.994;2023-09-19T06:33:37;11.88;;;4.72;;
30505;SDS011;17292;51.600;4.994;2023-09-19T06:36:07;10.35;;;5.30;;
30505;SDS011;17292;51.600;4.994;2023-09-19T06:38:33;14.82;;;4.70;;
30505;SDS011;17292;51.600;4.994;2023-09-19T06:41:01;7.82;;;4.03;;
30505;SDS011;17292;51.600;4.994;2023-09-19T06:43:30;9.85;;;4.93;;
30505;SDS011;17292;51.600;4.994;2023-09-19T06:45:56;10.68;;;5.15;;
30505;SDS011;17292;51.600;4.994;2023-09-19T06:48:22;14.02;;;5.20;;
30505;SDS011;17292;51.600;4.994;2023-09-19T06:50:57;8.10;;;4.63;;
30505;SDS011;17292;51.600;4.994;2023-09-19T06:53:29;14.55;;;4.75;;
30505;SDS011;17292;51.600;4.994;2023-09-19T06:55:57;8.18;;;5.05;;
30505;SDS011;17292;51.600;4.994;2023-09-19T06:58:23;10.13;;;4.50;;
30505;SDS011;17292;51.600;4.994;2023-09-19T07:00:49;13.15;;;5.13;;
30505;SDS011;17292;51.600;4.994;2023-09-19T07:03:15;10.35;;;5.10;;
30505;SDS011;17292;51.600;4.994;2023-09-19T07:05:46;11.40;;;4.78;;
30505;SDS011;17292;51.600;4.994;2023-09-19T07:08:13;13.00;;;5.25;;
30505;SDS011;17292;51.600;4.994;2023-09-19T07:10:40;9.68;;;4.43;;
30505;SDS011;17292;51.600;4.994;2023-09-19T07:13:13;9.13;;;4.65;;
30505;SDS011;17292;51.600;4.994;2023-09-19T07:15:42;9.77;;;4.60;;
30505;SDS011;17292;51.600;4.994;2023-09-19T07:18:12;7.47;;;4.60;;
30505;SDS011;17292;51.600;4.994;2023-09-19T07:20:39;6.15;;;4.65;;
30505;SDS011;17292;51.600;4.994;2023-09-19T07:23:11;10.23;;;4.60;;
30505;SDS011;17292;51.600;4.994;2023-09-19T07:25:40;9.30;;;4.63;;
30505;SDS011;17292;51.600;4.994;2023-09-19T07:28:06;14.05;;;4.47;;
30505;SDS011;17292;51.600;4.994;2023-09-19T07:30:35;10.07;;;4.70;;
30505;SDS011;17292;51.600;4.994;2023-09-19T07:33:02;7.82;;;4.47;;
30505;SDS011;17292;51.600;4.994;2023-09-19T07:35:30;8.45;;;4.45;;
30505;SDS011;17292;51.600;4.994;2023-09-19T07:37:56;7.78;;;4.65;;
30505;SDS011;17292;51.600;4.994;2023-09-19T07:40:26;9.98;;;4.15;;
30505;SDS011;17292;51.600;4.994;2023-09-19T07:42:54;8.95;;;4.43;;
30505;SDS011;17292;51.600;4.994;2023-09-19T07:45:20;11.48;;;4.70;;
30505;SDS011;17292;51.600;4.994;2023-09-19T07:47:48;12.75;;;5.03;;
30505;SDS011;17292;51.600;4.994;2023-09-19T07:50:15;10.73;;;4.70;;
30505;SDS011;17292;51.600;4.994;2023-09-19T07:52:43;13.43;;;4.35;;
30505;SDS011;17292;51.600;4.994;2023-09-19T07:55:10;6.75;;;4.13;;
30505;SDS011;17292;51.600;4.994;2023-09-19T07:57:40;9.68;;;4.53;;
30505;SDS011;17292;51.600;4.994;2023-09-19T08:00:07;12.45;;;4.70;;
30505;SDS011;17292;51.600;4.994;2023-09-19T08:02:38;10.68;;;5.05;;
30505;SDS011;17292;51.600;4.994;2023-09-19T08:05:04;13.48;;;4.95;;
30505;SDS011;17292;51.600;4.994;2023-09-19T08:07:37;11.63;;;4.90;;
30505;SDS011;17292;51.600;4.994;2023-09-19T08:10:04;15.82;;;5.22;;
30505;SDS011;17292;51.600;4.994;2023-09-19T08:12:33;11.05;;;4.70;;
30505;SDS011;17292;51.600;4.994;2023-09-19T08:15:01;9.55;;;3.95;;
30505;SDS011;17292;51.600;4.994;2023-09-19T08:17:28;14.48;;;5.30;;
30505;SDS011;17292;51.600;4.994;2023-09-19T08:19:54;11.75;;;4.25;;
30505;SDS011;17292;51.600;4.994;2023-09-19T08:22:20;11.02;;;4.72;;
30505;SDS011;17292;51.600;4.994;2023-09-19T08:24:48;10.48;;;4.88;;
30505;SDS011;17292;51.600;4.994;2023-09-19T08:27:14;7.90;;;4.43;;
30505;SDS011;17292;51.600;4.994;2023-09-19T08:29:43;10.93;;;4.43;;
30505;SDS011;17292;51.600;4.994;2023-09-19T08:32:09;17.73;;;5.00;;
30505;SDS011;17292;51.600;4.994;2023-09-19T08:34:36;10.60;;;4.75;;
30505;SDS011;17292;51.600;4.994;2023-09-19T08:37:03;9.27;;;4.47;;
30505;SDS011;17292;51.600;4.994;2023-09-19T08:39:30;12.13;;;4.68;;
30505;SDS011;17292;51.600;4.994;2023-09-19T08:41:58;10.23;;;4.68;;
30505;SDS011;17292;51.600;4.994;2023-09-19T08:44:25;8.30;;;4.68;;
30505;SDS011;17292;51.600;4.994;2023-09-19T08:46:54;11.32;;;4.80;;
30505;SDS011;17292;51.600;4.994;2023-09-19T08:52:05;8.18;;;4.38;;
30505;SDS011;17292;51.600;4.994;2023-09-19T08:57:01;8.05;;;4.72;;
30505;SDS011;17292;51.600;4.994;2023-09-19T08:59:33;12.20;;;3.88;;
30505;SDS011;17292;51.600;4.994;2023-09-19T09:02:00;9.07;;;4.60;;
30505;SDS011;17292;51.600;4.994;2023-09-19T09:04:29;12.90;;;4.80;;
30505;SDS011;17292;51.600;4.994;2023-09-19T09:06:56;8.82;;;4.45;;
30505;SDS011;17292;51.600;4.994;2023-09-19T09:09:23;13.32;;;5.10;;
30505;SDS011;17292;51.600;4.994;2023-09-19T09:11:49;12.95;;;4.82;;
30505;SDS011;17292;51.600;4.994;2023-09-19T09:14:18;8.02;;;4.57;;
30505;SDS011;17292;51.600;4.994;2023-09-19T09:16:46;8.82;;;4.28;;
30505;SDS011;17292;51.600;4.994;2023-09-19T09:19:14;10.20;;;4.20;;
30505;SDS011;17292;51.600;4.994;2023-09-19T09:21:45;6.47;;;4.03;;
30505;SDS011;17292;51.600;4.994;2023-09-19T09:24:28;7.18;;;3.95;;
30505;SDS011;17292;51.600;4.994;2023-09-19T09:26:55;9.52;;;4.20;;
30505;SDS011;17292;51.600;4.994;2023-09-19T09:35:09;11.00;;;4.80;;
30505;SDS011;17292;51.600;4.994;2023-09-19T09:37:36;9.73;;;3.80;;
30505;SDS011;17292;51.600;4.994;2023-09-19T09:40:03;8.80;;;4.57;;
30505;SDS011;17292;51.600;4.994;2023-09-19T09:42:39;10.85;;;4.78;;
30505;SDS011;17292;51.600;4.994;2023-09-19T09:45:16;9.73;;;4.25;;
30505;SDS011;17292;51.600;4.994;2023-09-19T09:47:43;6.13;;;4.13;;
30505;SDS011;17292;51.600;4.994;2023-09-19T09:50:24;8.40;;;4.38;;
30505;SDS011;17292;51.600;4.994;2023-09-19T09:56:06;12.70;;;4.68;;
30505;SDS011;17292;51.600;4.994;2023-09-19T09:58:33;11.88;;;4.95;;
30505;SDS011;17292;51.600;4.994;2023-09-19T10:01:05;12.30;;;5.32;;
30505;SDS011;17292;51.600;4.994;2023-09-19T10:03:40;14.00;;;4.72;;
30505;SDS011;17292;51.600;4.994;2023-09-19T10:06:13;9.13;;;4.35;;
30505;SDS011;17292;51.600;4.994;2023-09-19T10:11:40;6.97;;;4.40;;
30505;SDS011;17292;51.600;4.994;2023-09-19T10:14:08;11.07;;;4.28;;
30505;SDS011;17292;51.600;4.994;2023-09-19T10:16:36;6.90;;;4.38;;
30505;SDS011;17292;51.600;4.994;2023-09-19T10:19:05;7.70;;;4.60;;
30505;SDS011;17292;51.600;4.994;2023-09-19T10:21:34;9.27;;;4.10;;
30505;SDS011;17292;51.600;4.994;2023-09-19T10:24:03;12.63;;;4.88;;
30505;SDS011;17292;51.600;4.994;2023-09-19T10:26:32;7.25;;;4.30;;
30505;SDS011;17292;51.600;4.994;2023-09-19T10:29:01;8.48;;;4.40;;
30505;SDS011;17292;51.600;4.994;2023-09-19T10:31:32;10.70;;;4.45;;
30505;SDS011;17292;51.600;4.994;2023-09-19T10:34:02;6.07;;;4.45;;
30505;SDS011;17292;51.600;4.994;2023-09-19T10:36:31;11.98;;;4.28;;
30505;SDS011;17292;51.600;4.994;2023-09-19T10:39:00;11.52;;;4.28;;
30505;SDS011;17292;51.600;4.994;2023-09-19T10:41:32;12.27;;;4.50;;
30505;SDS011;17292;51.600;4.994;2023-09-19T10:44:00;10.52;;;4.15;;
30505;SDS011;17292;51.600;4.994;2023-09-19T10:46:30;12.88;;;4.63;;
30505;SDS011;17292;51.600;4.994;2023-09-19T10:49:00;8.93;;;4.18;;
30505;SDS011;17292;51.600;4.994;2023-09-19T10:51:29;10.93;;;4.15;;
30505;SDS011;17292;51.600;4.994;2023-09-19T10:59:05;13.18;;;4.47;;
30505;SDS011;17292;51.600;4.994;2023-09-19T11:01:46;5.57;;;4.03;;
30505;SDS011;17292;51.600;4.994;2023-09-19T11:07:07;8.77;;;4.53;;
30505;SDS011;17292;51.600;4.994;2023-09-19T11:09:42;10.32;;;4.13;;
30505;SDS011;17292;51.600;4.994;2023-09-19T11:12:11;9.38;;;4.55;;
30505;SDS011;17292;51.600;4.994;2023-09-19T11:14:38;10.63;;;4.40;;
30505;SDS011;17292;51.600;4.994;2023-09-19T11:22:21;13.80;;;4.47;;
30505;SDS011;17292;51.600;4.994;2023-09-19T11:24:48;10.82;;;4.20;;
30505;SDS011;17292;51.600;4.994;2023-09-19T11:27:16;8.13;;;4.10;;
30505;SDS011;17292;51.600;4.994;2023-09-19T11:29:43;11.27;;;4.15;;
30505;SDS011;17292;51.600;4.994;2023-09-19T11:32:09;11.25;;;4.32;;
30505;SDS011;17292;51.600;4.994;2023-09-19T11:37:03;7.03;;;3.70;;
30505;SDS011;17292;51.600;4.994;2023-09-19T11:39:30;7.22;;;4.05;;
30505;SDS011;17292;51.600;4.994;2023-09-19T11:41:56;9.93;;;4.28;;
30505;SDS011;17292;51.600;4.994;2023-09-19T11:49:18;6.85;;;4.45;;
30505;SDS011;17292;51.600;4.994;2023-09-19T11:51:50;9.07;;;3.78;;
30505;SDS011;17292;51.600;4.994;2023-09-19T11:54:17;10.68;;;4.07;;
30505;SDS011;17292;51.600;4.994;2023-09-19T11:56:44;8.93;;;3.75;;
30505;SDS011;17292;51.600;4.994;2023-09-19T11:59:11;8.52;;;3.95;;
30505;SDS011;17292;51.600;4.994;2023-09-19T12:01:41;5.80;;;3.60;;
30505;SDS011;17292;51.600;4.994;2023-09-19T12:04:11;9.80;;;3.58;;
30505;SDS011;17292;51.600;4.994;2023-09-19T12:06:37;17.17;;;3.80;;
30505;SDS011;17292;51.600;4.994;2023-09-19T12:09:12;11.40;;;3.72;;
30505;SDS011;17292;51.600;4.994;2023-09-19T12:11:42;9.80;;;3.40;;
30505;SDS011;17292;51.600;4.994;2023-09-19T12:14:20;16.08;;;3.88;;
30505;SDS011;17292;51.600;4.994;2023-09-19T12:16:51;13.45;;;3.78;;
30505;SDS011;17292;51.600;4.994;2023-09-19T12:19:20;10.50;;;3.67;;
30505;SDS011;17292;51.600;4.994;2023-09-19T12:22:02;17.02;;;4.15;;
30505;SDS011;17292;51.600;4.994;2023-09-19T12:24:34;17.38;;;4.18;;
30505;SDS011;17292;51.600;4.994;2023-09-19T12:27:04;13.38;;;3.70;;
30505;SDS011;17292;51.600;4.994;2023-09-19T12:29:31;15.32;;;4.00;;
30505;SDS011;17292;51.600;4.994;2023-09-19T12:32:01;10.15;;;3.25;;
30505;SDS011;17292;51.600;4.994;2023-09-19T12:34:29;15.23;;;3.63;;
30505;SDS011;17292;51.600;4.994;2023-09-19T12:37:06;13.73;;;3.78;;
30505;SDS011;17292;51.600;4.994;2023-09-19T12:39:41;11.43;;;3.20;;
30505;SDS011;17292;51.600;4.994;2023-09-19T12:42:08;8.80;;;3.53;;
30505;SDS011;17292;51.600;4.994;2023-09-19T12:44:38;11.95;;;4.20;;
30505;SDS011;17292;51.600;4.994;2023-09-19T12:47:11;12.45;;;3.92;;
30505;SDS011;17292;51.600;4.994;2023-09-19T12:52:23;13.30;;;3.75;;
30505;SDS011;17292;51.600;4.994;2023-09-19T12:54:51;11.90;;;3.67;;
30505;SDS011;17292;51.600;4.994;2023-09-19T12:57:24;14.75;;;4.35;;
30505;SDS011;17292;51.600;4.994;2023-09-19T12:59:52;6.85;;;3.88;;
30505;SDS011;17292;51.600;4.994;2023-09-19T13:02:19;10.63;;;3.50;;
30505;SDS011;17292;51.600;4.994;2023-09-19T13:04:52;11.55;;;3.60;;
30505;SDS011;17292;51.600;4.994;2023-09-19T13:07:40;9.07;;;3.08;;
30505;SDS011;17292;51.600;4.994;2023-09-19T13:10:11;8.63;;;3.60;;
30505;SDS011;17292;51.600;4.994;2023-09-19T13:12:40;10.38;;;3.65;;
30505;SDS011;17292;51.600;4.994;2023-09-19T13:17:45;8.65;;;3.80;;
30505;SDS011;17292;51.600;4.994;2023-09-19T13:20:22;8.18;;;3.63;;
30505;SDS011;17292;51.600;4.994;2023-09-19T13:22:57;9.13;;;3.38;;
30505;SDS011;17292;51.600;4.994;2023-09-19T13:25:25;7.93;;;3.63;;
30505;SDS011;17292;51.600;4.994;2023-09-19T13:27:55;11.50;;;3.53;;
30505;SDS011;17292;51.600;4.994;2023-09-19T13:30:25;10.35;;;3.53;;
30505;SDS011;17292;51.600;4.994;2023-09-19T13:32:52;14.57;;;4.15;;
30505;SDS011;17292;51.600;4.994;2023-09-19T13:35:19;7.45;;;3.70;;
30505;SDS011;17292;51.600;4.994;2023-09-19T13:37:46;14.30;;;3.75;;
30505;SDS011;17292;51.600;4.994;2023-09-19T13:40:14;7.47;;;3.20;;
30505;SDS011;17292;51.600;4.994;2023-09-19T13:42:40;10.95;;;3.78;;
30505;SDS011;17292;51.600;4.994;2023-09-19T13:45:07;14.27;;;3.72;;
30505;SDS011;17292;51.600;4.994;2023-09-19T13:47:42;8.60;;;3.60;;
30505;SDS011;17292;51.600;4.994;2023-09-19T13:50:08;8.90;;;3.70;;
30505;SDS011;17292;51.600;4.994;2023-09-19T13:52:34;16.55;;;4.13;;
30505;SDS011;17292;51.600;4.994;2023-09-19T13:55:01;22.13;;;3.05;;
30505;SDS011;17292;51.600;4.994;2023-09-19T13:57:27;15.45;;;3.47;;
30505;SDS011;17292;51.600;4.994;2023-09-19T13:59:54;13.13;;;3.50;;
30505;SDS011;17292;51.600;4.994;2023-09-19T14:02:23;14.63;;;3.53;;
30505;SDS011;17292;51.600;4.994;2023-09-19T14:04:50;14.00;;;3.80;;
30505;SDS011;17292;51.600;4.994;2023-09-19T14:07:16;13.38;;;3.95;;
30505;SDS011;17292;51.600;4.994;2023-09-19T14:09:43;9.23;;;3.35;;
30505;SDS011;17292;51.600;4.994;2023-09-19T14:12:10;9.57;;;3.83;;
30505;SDS011;17292;51.600;4.994;2023-09-19T14:14:37;6.45;;;3.25;;
30505;SDS011;17292;51.600;4.994;2023-09-19T14:17:06;13.30;;;3.67;;
30505;SDS011;17292;51.600;4.994;2023-09-19T14:19:32;14.30;;;3.92;;
30505;SDS011;17292;51.600;4.994;2023-09-19T14:21:58;11.00;;;3.60;;
30505;SDS011;17292;51.600;4.994;2023-09-19T14:24:27;10.80;;;3.55;;
30505;SDS011;17292;51.600;4.994;2023-09-19T14:26:53;12.25;;;4.00;;
30505;SDS011;17292;51.600;4.994;2023-09-19T14:29:19;5.85;;;3.33;;
30505;SDS011;17292;51.600;4.994;2023-09-19T14:31:45;12.88;;;3.92;;
30505;SDS011;17292;51.600;4.994;2023-09-19T14:34:11;10.50;;;3.90;;
30505;SDS011;17292;51.600;4.994;2023-09-19T14:36:39;10.73;;;3.60;;
30505;SDS011;17292;51.600;4.994;2023-09-19T14:39:06;8.32;;;3.33;;
30505;SDS011;17292;51.600;4.994;2023-09-19T14:41:35;7.30;;;3.65;;
30505;SDS011;17292;51.600;4.994;2023-09-19T14:44:02;11.13;;;3.45;;
30505;SDS011;17292;51.600;4.994;2023-09-19T14:46:30;8.73;;;3.20;;
30505;SDS011;17292;51.600;4.994;2023-09-19T14:48:56;8.48;;;3.92;;
30505;SDS011;17292;51.600;4.994;2023-09-19T14:51:29;9.38;;;3.50;;
30505;SDS011;17292;51.600;4.994;2023-09-19T14:53:55;8.02;;;3.70;;
30505;SDS011;17292;51.600;4.994;2023-09-19T14:56:22;7.43;;;3.38;;
30505;SDS011;17292;51.600;4.994;2023-09-19T14:58:49;12.98;;;3.58;;
30505;SDS011;17292;51.600;4.994;2023-09-19T15:01:15;8.18;;;3.58;;
30505;SDS011;17292;51.600;4.994;2023-09-19T15:03:41;6.55;;;3.25;;
30505;SDS011;17292;51.600;4.994;2023-09-19T15:06:08;8.43;;;3.63;;
30505;SDS011;17292;51.600;4.994;2023-09-19T15:08:37;6.60;;;3.63;;
30505;SDS011;17292;51.600;4.994;2023-09-19T15:11:04;11.93;;;3.22;;
30505;SDS011;17292;51.600;4.994;2023-09-19T15:13:32;11.32;;;3.53;;
30505;SDS011;17292;51.600;4.994;2023-09-19T15:16:05;8.75;;;3.20;;
30505;SDS011;17292;51.600;4.994;2023-09-19T15:18:34;7.80;;;3.60;;
30505;SDS011;17292;51.600;4.994;2023-09-19T15:21:05;12.52;;;4.05;;
30505;SDS011;17292;51.600;4.994;2023-09-19T15:23:32;11.07;;;3.70;;
30505;SDS011;17292;51.600;4.994;2023-09-19T15:26:02;13.48;;;4.00;;
30505;SDS011;17292;51.600;4.994;2023-09-19T15:28:29;9.70;;;3.40;;
30505;SDS011;17292;51.600;4.994;2023-09-19T15:31:10;4.88;;;2.90;;
30505;SDS011;17292;51.600;4.994;2023-09-19T15:33:36;10.65;;;2.97;;
30505;SDS011;17292;51.600;4.994;2023-09-19T15:36:03;9.43;;;3.40;;
30505;SDS011;17292;51.600;4.994;2023-09-19T15:38:29;8.10;;;3.28;;
30505;SDS011;17292;51.600;4.994;2023-09-19T15:40:57;10.55;;;3.33;;
30505;SDS011;17292;51.600;4.994;2023-09-19T15:43:23;7.07;;;3.22;;
30505;SDS011;17292;51.600;4.994;2023-09-19T15:45:49;10.02;;;3.72;;
30505;SDS011;17292;51.600;4.994;2023-09-19T15:48:16;10.38;;;3.75;;
30505;SDS011;17292;51.600;4.994;2023-09-19T15:50:43;9.43;;;3.42;;
30505;SDS011;17292;51.600;4.994;2023-09-19T15:53:10;7.25;;;3.45;;
30505;SDS011;17292;51.600;4.994;2023-09-19T15:55:39;10.38;;;3.85;;
30505;SDS011;17292;51.600;4.994;2023-09-19T15:58:05;12.57;;;3.40;;